Platter, Oklahoma
Current Conditions -  °F | °C
As of 10:15 AM on Wednesday 26 Nov 2014 (Local Time) from KDUA Reporting Station
Clear Clear  
Wind Chill: 54°   Ceiling: Unl
Heat Index: 54°   Visibility: 10mi
Dew Point: 32°   Wind: 13mph
Humidity: 44%   Direction: 340°NNW
Pressure: 30.14"   Gusts: NA
Location:  33.91°N, 96.53°W
Report Text: KDUA 261615Z AUTO 34011KT 250V360 10SM CLR 12/00 A3014 RMK AO2
Loading
Personal Weather Stations






























Interactive Weather Map New forecast layout! Learn more

10-Day Weather Forecast

Advertisements
Track Severe Weather on mobile